Time;durP1;ratioP1;P1;durP2;ratioP2;P2;SDS_P1;SDS_P2;PMS_P1;PMS_P2;Temp;Humidity;BMP_temperature;BMP_pressure;BME280_temperature;BME280_humidity;BME280_pressure;Samples;Min_cycle;Max_cycle;Signal;HPM_P1;HPM_P2
2024/02/19 00:04:10;;;;;;;15.80;5.03;;;;;;;13.65;100.00;101945.41;10447686;28;20426;-78
2024/02/19 00:09:32;;;;;;;15.35;5.72;;;;;;;13.51;100.00;101946.00;10447699;28;20045;-78
2024/02/19 00:14:55;;;;;;;11.32;5.80;;;;;;;13.33;100.00;101937.59;10419943;28;20049;-78
2024/02/19 00:20:19;;;;;;;14.63;6.40;;;;;;;13.34;100.00;101936.72;10416333;28;20068;-77
2024/02/19 00:25:42;;;;;;;18.83;6.50;;;;;;;13.36;100.00;101927.06;10447269;28;20195;-78
2024/02/19 00:31:04;;;;;;;10.65;5.97;;;;;;;13.24;100.00;101918.81;10434085;28;20461;-77
2024/02/19 00:36:28;;;;;;;12.20;5.20;;;;;;;13.29;100.00;101927.78;10433408;28;20364;-77
2024/02/19 00:41:51;;;;;;;12.27;6.30;;;;;;;13.37;100.00;101912.94;10448479;28;20103;-78
2024/02/19 00:47:13;;;;;;;11.77;6.30;;;;;;;13.42;100.00;101921.91;10484651;28;20135;-77
2024/02/19 00:52:38;;;;;;;12.80;6.13;;;;;;;13.32;100.00;101914.59;10420790;28;20049;-77
2024/02/19 00:58:01;;;;;;;12.38;7.15;;;;;;;13.43;100.00;101907.78;10454999;28;20057;-78
2024/02/19 01:03:23;;;;;;;15.18;6.63;;;;;;;13.50;100.00;101911.47;10441253;28;20052;-78
2024/02/19 01:08:47;;;;;;;12.80;6.05;;;;;;;13.62;100.00;101911.72;10441003;28;20491;-78
2024/02/19 01:14:09;;;;;;;16.85;6.53;;;;;;;13.62;100.00;101901.09;10439476;28;20049;-77
2024/02/19 01:19:33;;;;;;;25.23;6.53;;;;;;;13.68;100.00;101890.63;10453962;28;20072;-77
2024/02/19 01:24:57;;;;;;;19.73;6.82;;;;;;;13.65;100.00;101887.91;10424099;28;20045;-77
2024/02/19 01:30:19;;;;;;;14.40;7.38;;;;;;;13.69;100.00;101886.22;10440052;28;20446;-77
2024/02/19 01:35:44;;;;;;;9.10;6.25;;;;;;;13.81;100.00;101889.13;10454062;28;20061;-77
2024/02/19 01:41:08;;;;;;;12.18;5.97;;;;;;;13.80;100.00;101888.22;10438859;28;20135;-78
2024/02/19 01:46:32;;;;;;;12.50;6.82;;;;;;;13.81;100.00;101894.41;10466203;28;20063;-78
2024/02/19 01:51:56;;;;;;;13.23;6.85;;;;;;;14.12;100.00;101883.53;10468270;28;20057;-78
2024/02/19 01:57:21;;;;;;;15.82;7.55;;;;;;;14.07;100.00;101879.00;10452706;28;20049;-78
2024/02/19 02:02:44;;;;;;;14.32;6.40;;;;;;;14.08;100.00;101886.13;10452294;28;20053;-78
2024/02/19 02:08:07;;;;;;;14.90;8.20;;;;;;;14.11;100.00;101881.75;10480505;28;20053;-80
2024/02/19 02:13:33;;;;;;;16.33;9.73;;;;;;;14.11;100.00;101883.53;10480668;28;20494;-79
2024/02/19 02:18:56;;;;;;;13.73;6.53;;;;;;;14.01;100.00;101877.13;10452289;28;20136;-79
2024/02/19 02:24:19;;;;;;;15.13;6.55;;;;;;;13.94;100.00;101881.44;10480141;28;20052;-78
2024/02/19 02:29:42;;;;;;;14.30;6.07;;;;;;;13.81;100.00;101881.16;10466253;28;20496;-79
2024/02/19 02:35:06;;;;;;;17.25;6.28;;;;;;;13.70;100.00;101885.34;10451599;28;20095;-79
2024/02/19 02:40:28;;;;;;;12.98;5.93;;;;;;;13.56;100.00;101893.91;10481543;28;20053;-79
2024/02/19 02:45:52;;;;;;;14.43;6.13;;;;;;;13.70;100.00;101888.91;10458143;28;20052;-79
2024/02/19 02:51:14;;;;;;;12.20;5.68;;;;;;;13.62;100.00;101876.31;10488311;28;20068;-79
2024/02/19 02:56:37;;;;;;;16.52;8.70;;;;;;;13.70;100.00;101893.31;10477868;28;20075;-79
2024/02/19 03:02:01;;;;;;;13.93;8.48;;;;;;;13.68;100.00;101889.72;10451296;28;20064;-78
2024/02/19 03:07:23;;;;;;;13.27;7.13;;;;;;;13.71;100.00;101898.66;10434529;28;20037;-78
2024/02/19 03:12:46;;;;;;;17.80;9.90;;;;;;;13.94;100.00;101896.47;10434455;28;20069;-77
2024/02/19 03:18:11;;;;;;;13.63;6.93;;;;;;;13.88;100.00;101891.94;10435565;28;20525;-78
2024/02/19 03:23:34;;;;;;;11.77;6.68;;;;;;;13.70;100.00;101899.53;10407940;28;20049;-78
2024/02/19 03:28:56;;;;;;;10.38;6.82;;;;;;;13.59;100.00;101902.81;10458659;28;20057;-78
2024/02/19 03:34:20;;;;;;;13.13;7.45;;;;;;;13.49;100.00;101904.34;10462839;28;20057;-78
2024/02/19 03:39:44;;;;;;;15.15;6.70;;;;;;;13.51;100.00;101911.50;10448803;28;20049;-78
2024/02/19 03:45:07;;;;;;;12.38;6.82;;;;;;;13.43;100.00;101907.78;10450058;28;20068;-78
2024/02/19 03:50:31;;;;;;;12.35;7.15;;;;;;;13.64;100.00;101906.44;10498012;28;20029;-79
2024/02/19 03:55:55;;;;;;;15.45;6.22;;;;;;;13.53;100.00;101901.78;10435225;28;20049;-78
2024/02/19 04:01:17;;;;;;;14.07;6.28;;;;;;;13.49;100.00;101910.56;10476164;28;20103;-79
2024/02/19 04:06:41;;;;;;;12.55;6.70;;;;;;;13.56;100.00;101904.53;10434477;28;20057;-78
2024/02/19 04:12:04;;;;;;;11.38;6.13;;;;;;;13.60;100.00;101908.13;10448118;28;20497;-79
2024/02/19 04:17:27;;;;;;;15.60;6.72;;;;;;;13.55;100.00;101900.09;10448569;28;20398;-79
2024/02/19 04:22:51;;;;;;;14.57;9.63;;;;;;;13.69;100.00;101892.41;10468579;28;20533;-78
2024/02/19 04:28:13;;;;;;;9.55;6.45;;;;;;;13.66;100.00;101907.34;10484423;28;20072;-78
2024/02/19 04:33:36;;;;;;;12.68;7.22;;;;;;;13.47;100.00;101899.00;10456568;28;20482;-78
2024/02/19 04:39:00;;;;;;;11.50;5.80;;;;;;;13.34;100.00;101891.63;10447994;28;20045;-79
2024/02/19 04:44:22;;;;;;;9.40;5.97;;;;;;;13.26;100.00;101895.00;10455545;28;20056;-78
2024/02/19 04:49:45;;;;;;;13.35;6.95;;;;;;;13.25;100.00;101896.75;10441701;28;20045;-78
2024/02/19 04:55:10;;;;;;;10.30;6.47;;;;;;;13.29;100.00;101892.41;10452392;28;20115;-78
2024/02/19 05:00:33;;;;;;;13.35;5.88;;;;;;;13.39;100.00;101891.78;10431883;28;20380;-77
2024/02/19 05:05:56;;;;;;;9.50;6.32;;;;;;;13.53;100.00;101892.94;10468249;28;20045;-77
2024/02/19 05:11:21;;;;;;;12.95;6.55;;;;;;;13.92;100.00;101892.88;10487457;28;20044;-78
2024/02/19 05:16:43;;;;;;;13.27;5.97;;;;;;;14.11;100.00;101897.69;10468134;28;20049;-78
2024/02/19 05:22:06;;;;;;;13.90;7.57;;;;;;;14.38;100.00;101899.09;10471424;28;20069;-78
2024/02/19 05:27:30;;;;;;;12.95;7.55;;;;;;;14.54;100.00;101890.53;10447739;28;20049;-79
2024/02/19 05:32:53;;;;;;;10.25;7.43;;;;;;;14.57;100.00;101896.78;10439589;28;20134;-80
2024/02/19 05:38:15;;;;;;;13.57;11.60;;;;;;;14.39;100.00;101908.88;10413435;28;20045;-78
2024/02/19 05:43:39;;;;;;;13.13;9.93;;;;;;;14.38;100.00;101905.31;10467414;28;20044;-78
2024/02/19 05:49:01;;;;;;;14.18;9.52;;;;;;;14.41;100.00;101901.81;10453341;28;20045;-79
2024/02/19 05:54:24;;;;;;;12.55;6.45;;;;;;;14.45;100.00;101908.97;10465368;28;20053;-78
2024/02/19 05:59:49;;;;;;;13.65;7.57;;;;;;;14.44;100.00;101907.22;10452325;28;20483;-78
2024/02/19 06:05:12;;;;;;;16.80;8.43;;;;;;;14.53;100.00;101913.56;10453118;28;20057;-79
2024/02/19 06:10:34;;;;;;;16.40;13.32;;;;;;;14.81;100.00;101920.25;10436535;28;20369;-79
2024/02/19 06:15:59;;;;;;;12.98;7.28;;;;;;;14.90;100.00;101933.69;10437830;28;20410;-79
2024/02/19 06:21:21;;;;;;;12.35;6.65;;;;;;;15.85;100.00;101931.59;10451431;28;20044;-79
2024/02/19 06:26:44;;;;;;;14.40;10.93;;;;;;;15.52;100.00;101939.09;10465214;28;20445;-79
2024/02/19 06:32:08;;;;;;;14.90;8.65;;;;;;;15.37;100.00;101933.53;10438348;28;20056;-78
2024/02/19 06:37:31;;;;;;;13.80;8.40;;;;;;;16.87;100.00;101934.53;10452024;28;20048;-79
2024/02/19 06:42:55;;;;;;;14.95;10.27;;;;;;;16.62;100.00;101936.06;10436657;28;20087;-79
2024/02/19 06:48:19;;;;;;;15.60;9.30;;;;;;;16.23;100.00;101949.81;10493229;28;20056;-79
2024/02/19 06:53:41;;;;;;;15.18;9.80;;;;;;;16.33;100.00;101947.28;10481646;28;20133;-79
2024/02/19 06:59:04;;;;;;;13.82;8.80;;;;;;;16.65;100.00;101947.66;10464287;28;20049;-79
2024/02/19 07:04:28;;;;;;;12.48;8.30;;;;;;;17.20;100.00;101932.09;10449968;28;20037;-79
2024/02/19 07:09:52;;;;;;;16.08;7.68;;;;;;;17.32;100.00;101939.31;10432757;28;20525;-79
2024/02/19 07:15:14;;;;;;;15.82;9.20;;;;;;;16.89;100.00;101944.31;10435795;28;20045;-79
2024/02/19 07:20:44;;;;;;;15.10;9.68;;;;;;;21.58;80.68;101936.84;10437431;28;20079;-79
2024/02/19 07:26:07;;;;;;;20.52;11.43;;;;;;;22.12;66.97;101922.75;10449075;28;20052;-79
2024/02/19 07:31:29;;;;;;;16.02;7.57;;;;;;;23.26;61.35;101929.06;10436133;28;20045;-79
2024/02/19 07:36:54;;;;;;;14.80;8.55;;;;;;;23.11;56.66;101931.13;10457381;28;20059;-80
2024/02/19 07:42:17;;;;;;;14.02;7.30;;;;;;;21.24;65.39;101929.13;10438851;28;20103;-77
2024/02/19 07:47:39;;;;;;;13.07;8.02;;;;;;;24.10;54.85;101927.41;10464020;28;20578;-79
2024/02/19 07:53:03;;;;;;;13.50;7.40;;;;;;;26.89;43.34;101919.78;10434905;28;20052;-79
2024/02/19 07:58:26;;;;;;;15.30;7.38;;;;;;;25.78;45.54;101915.13;10420785;28;20427;-78
2024/02/19 08:03:48;;;;;;;12.20;6.70;;;;;;;28.18;40.88;101916.94;10435355;28;20049;-81
2024/02/19 08:09:13;;;;;;;12.85;7.38;;;;;;;27.53;39.64;101911.25;10475856;28;20044;-81
2024/02/19 08:14:36;;;;;;;12.50;7.25;;;;;;;25.28;44.05;101907.47;10457329;28;20060;-80
2024/02/19 08:19:58;;;;;;;10.23;6.20;;;;;;;26.23;42.07;101916.47;10435019;28;20076;-80
2024/02/19 08:25:23;;;;;;;12.93;7.38;;;;;;;25.12;42.75;101917.81;10434502;28;20491;-80
2024/02/19 08:30:45;;;;;;;21.63;10.07;;;;;;;24.33;45.58;101924.25;10462513;28;20047;-79
2024/02/19 08:36:08;;;;;;;14.10;7.47;;;;;;;25.21;44.86;101912.16;10434702;28;20063;-78
2024/02/19 08:41:33;;;;;;;10.00;6.82;;;;;;;25.36;42.48;101911.75;10448505;28;20130;-80
2024/02/19 08:46:55;;;;;;;10.50;7.47;;;;;;;24.53;45.21;101925.56;10459438;28;20057;-82
2024/02/19 08:52:18;;;;;;;11.30;7.38;;;;;;;26.33;41.85;101924.28;10435288;28;20044;-81
2024/02/19 08:57:42;;;;;;;11.27;5.50;;;;;;;25.64;41.33;101927.25;10446477;28;20506;-81
2024/02/19 09:03:06;;;;;;;11.43;7.40;;;;;;;22.56;48.57;101929.31;10462237;28;20074;-81
2024/02/19 09:08:28;;;;;;;10.88;6.30;;;;;;;22.51;49.26;101928.50;10451613;28;20134;-81
2024/02/19 09:13:52;;;;;;;9.88;6.28;;;;;;;21.47;54.00;101921.72;10470087;28;20049;-81
2024/02/19 09:19:16;;;;;;;10.45;5.95;;;;;;;23.92;46.31;101920.59;10484233;28;20098;-82
2024/02/19 09:24:41;;;;;;;8.18;6.22;;;;;;;24.52;44.97;101912.09;10483649;28;20053;-81
2024/02/19 09:30:07;;;;;;;9.02;5.45;;;;;;;24.37;44.51;101907.94;10442290;28;20494;-81
2024/02/19 09:35:30;;;;;;;12.40;6.07;;;;;;;25.25;44.66;101896.75;10442238;28;20465;-81
2024/02/19 09:40:52;;;;;;;10.40;5.55;;;;;;;27.09;40.30;101888.41;10482799;28;20041;-81
2024/02/19 09:46:19;;;;;;;7.25;5.50;;;;;;;27.09;39.65;101889.28;10454968;28;20057;-82
2024/02/19 09:51:49;;;;;;;7.40;5.57;;;;;;;25.02;42.25;101881.13;10441270;28;20053;-79
2024/02/19 09:57:12;;;;;;;8.80;5.68;;;;;;;25.15;43.71;101879.88;10438882;28;20095;-81
2024/02/19 10:02:38;;;;;;;10.30;5.60;;;;;;;25.67;41.29;101886.56;10483034;28;20583;-82
2024/02/19 10:08:04;;;;;;;8.07;5.47;;;;;;;26.35;41.65;101857.44;10453853;28;20057;-81
2024/02/19 10:13:26;;;;;;;8.10;5.82;;;;;;;27.46;38.77;101859.00;10467836;28;20048;-81
2024/02/19 10:18:52;;;;;;;8.23;5.88;;;;;;;27.37;39.25;101852.09;10412594;28;20549;-81
2024/02/19 10:24:16;;;;;;;9.75;6.07;;;;;;;25.43;43.71;101858.38;10441719;28;20055;-82
2024/02/19 10:29:38;;;;;;;11.10;6.60;;;;;;;23.49;46.75;101841.50;10450191;28;20056;-81
2024/02/19 10:35:02;;;;;;;10.43;6.35;;;;;;;24.16;46.21;101846.28;10452686;28;20037;-81
2024/02/19 10:40:25;;;;;;;13.15;6.68;;;;;;;24.49;45.29;101818.53;10452378;28;20067;-81
2024/02/19 10:45:50;;;;;;;15.35;6.20;;;;;;;24.93;44.98;101824.66;10477952;28;20049;-81
2024/02/19 10:51:17;;;;;;;11.38;6.25;;;;;;;25.36;44.50;101802.69;10466900;28;20055;-81
2024/02/19 10:56:43;;;;;;;11.35;6.50;;;;;;;23.04;49.64;101791.13;10480849;28;20049;-81
2024/02/19 11:02:09;;;;;;;10.43;6.50;;;;;;;23.08;52.56;101789.28;10451442;28;20076;-81
2024/02/19 11:07:36;;;;;;;13.45;6.95;;;;;;;24.16;49.14;101801.31;10478727;28;20114;-81
2024/02/19 11:13:06;;;;;;;9.57;5.40;;;;;;;25.78;44.43;101785.22;10464598;28;20037;-78
2024/02/19 11:18:29;;;;;;;7.78;5.80;;;;;;;26.81;41.45;101782.72;10463290;28;20107;-80
2024/02/19 11:23:54;;;;;;;11.23;6.15;;;;;;;25.94;43.47;101780.19;10436317;28;20062;-79
2024/02/19 11:29:17;;;;;;;10.23;5.85;;;;;;;24.94;44.95;101772.38;10448737;28;20045;-80
2024/02/19 11:34:41;;;;;;;11.38;5.95;;;;;;;23.70;47.94;101776.31;10445070;28;20056;-80
2024/02/19 11:40:06;;;;;;;10.02;5.82;;;;;;;23.14;49.16;101780.19;10476764;28;20079;-79
2024/02/19 11:45:30;;;;;;;16.33;6.10;;;;;;;21.86;55.75;101777.84;10450400;28;20052;-79
2024/02/19 11:50:53;;;;;;;10.43;6.53;;;;;;;21.28;60.38;101785.81;10435974;28;20049;-79
2024/02/19 11:56:19;;;;;;;12.10;7.15;;;;;;;20.71;66.93;101767.63;10449720;28;20060;-80
2024/02/19 12:01:43;;;;;;;13.98;6.70;;;;;;;20.71;70.71;101770.31;10424057;28;20055;-78
2024/02/19 12:07:06;;;;;;;14.70;6.43;;;;;;;20.51;69.95;101775.84;10449128;28;20375;-83
2024/02/19 12:12:31;;;;;;;12.30;6.38;;;;;;;20.44;69.64;101760.72;10435465;28;20060;-83
2024/02/19 12:17:54;;;;;;;9.93;7.15;;;;;;;20.41;72.14;101764.34;10461101;28;20499;-84
2024/02/19 12:23:17;;;;;;;11.32;6.18;;;;;;;20.30;74.24;101760.78;10436450;28;20636;-85
2024/02/19 12:28:41;;;;;;;9.25;7.13;;;;;;;19.93;74.21;101746.78;10435597;28;20495;-84
2024/02/19 12:34:05;;;;;;;9.23;6.15;;;;;;;19.81;77.41;101738.84;10447607;28;20122;-84
2024/02/19 12:39:30;;;;;;;9.82;6.00;;;;;;;19.82;80.00;101730.78;10449991;28;20041;-84
2024/02/19 12:44:54;;;;;;;12.65;7.80;;;;;;;20.19;80.20;101723.34;10469034;28;20045;-85
2024/02/19 12:50:17;;;;;;;11.82;8.07;;;;;;;20.73;77.35;101733.59;10441795;28;20048;-84
2024/02/19 12:55:40;;;;;;;14.63;8.00;;;;;;;21.07;74.76;101721.56;10440557;28;20041;-84
2024/02/19 13:01:07;;;;;;;13.57;7.78;;;;;;;21.15;71.42;101721.47;10453487;28;20057;-83
2024/02/19 13:06:30;;;;;;;12.82;8.98;;;;;;;20.26;75.57;101732.25;10454995;28;20128;-84
2024/02/19 13:11:52;;;;;;;16.17;9.50;;;;;;;19.79;80.97;101729.91;10472814;28;20073;-84
2024/02/19 13:17:18;;;;;;;13.50;8.80;;;;;;;20.00;82.36;101723.50;10448375;28;20056;-83
2024/02/19 13:22:40;;;;;;;14.75;8.13;;;;;;;19.50;81.79;101733.66;10475738;28;20076;-81
2024/02/19 13:28:03;;;;;;;14.30;10.15;;;;;;;18.74;86.12;101721.44;10473977;28;20110;-82
2024/02/19 13:33:27;;;;;;;19.17;10.18;;;;;;;18.80;89.99;101735.69;10445136;28;20080;-83
2024/02/19 13:38:50;;;;;;;14.55;10.18;;;;;;;18.79;91.10;101723.22;10459851;28;20051;-83
2024/02/19 13:44:13;;;;;;;18.38;11.07;;;;;;;18.64;93.34;101734.84;10465762;28;20168;-85
2024/02/19 13:49:37;;;;;;;16.70;10.63;;;;;;;18.79;91.94;101733.91;10440479;28;20041;-85
2024/02/19 13:54:59;;;;;;;13.27;8.75;;;;;;;18.81;89.49;101723.22;10470598;28;20553;-83
2024/02/19 14:00:22;;;;;;;13.55;9.73;;;;;;;18.51;91.43;101729.50;10438125;28;20041;-83
2024/02/19 14:05:46;;;;;;;16.17;9.98;;;;;;;18.37;93.25;101723.28;10451618;28;20059;-84
2024/02/19 14:11:09;;;;;;;14.13;9.77;;;;;;;18.13;96.16;101726.81;10470488;28;20107;-84
2024/02/19 14:16:33;;;;;;;13.07;10.02;;;;;;;17.95;97.76;101705.44;10447415;28;20558;-83
2024/02/19 14:21:57;;;;;;;19.73;11.32;;;;;;;17.46;98.91;101703.56;10438020;28;20118;-82
2024/02/19 14:27:20;;;;;;;16.00;10.90;;;;;;;17.17;100.00;101709.69;10428711;28;20041;-83
2024/02/19 14:32:43;;;;;;;16.75;9.85;;;;;;;17.14;100.00;101719.47;10452440;28;20106;-85
2024/02/19 14:38:07;;;;;;;17.23;9.43;;;;;;;17.23;100.00;101723.97;10465439;28;20067;-85
2024/02/19 14:43:31;;;;;;;14.85;10.27;;;;;;;17.23;100.00;101713.28;10476906;28;20572;-82
2024/02/19 14:48:54;;;;;;;17.00;10.40;;;;;;;17.09;100.00;101707.00;10450394;28;20049;-82
2024/02/19 14:54:18;;;;;;;15.95;10.93;;;;;;;16.96;100.00;101714.06;10431333;28;20399;-83
2024/02/19 14:59:42;;;;;;;14.57;10.00;;;;;;;16.85;100.00;101734.47;10450654;28;20036;-83
2024/02/19 15:05:04;;;;;;;16.98;9.95;;;;;;;16.64;100.00;101732.56;10428181;28;20045;-84
2024/02/19 15:10:29;;;;;;;18.60;10.70;;;;;;;16.30;100.00;101723.38;10469805;28;20071;-83
2024/02/19 15:15:52;;;;;;;17.58;10.02;;;;;;;15.95;100.00;101738.16;10458195;28;20160;-82
2024/02/19 15:21:14;;;;;;;17.95;11.00;;;;;;;15.72;100.00;101745.06;10456036;28;20045;-83
2024/02/19 15:26:39;;;;;;;19.70;11.38;;;;;;;15.38;100.00;101738.44;10478145;28;20045;-83
2024/02/19 15:32:01;;;;;;;23.58;17.08;;;;;;;15.24;100.00;101735.59;10462636;28;20486;-79
2024/02/19 15:37:24;;;;;;;20.40;12.23;;;;;;;15.08;100.00;101744.28;10448252;28;20051;-80
2024/02/19 15:42:48;;;;;;;22.42;15.85;;;;;;;14.93;100.00;101750.28;10419170;28;20049;-81
2024/02/19 15:48:20;;;;;;;24.98;12.88;;;;;;;14.84;100.00;101758.13;10469043;28;20053;-85
2024/02/19 15:53:44;;;;;;;19.67;12.23;;;;;;;14.91;100.00;101752.03;10452437;28;20056;-90
2024/02/19 15:59:09;;;;;;;17.45;11.65;;;;;;;14.89;100.00;101763.53;10435903;28;20056;-85
2024/02/19 16:04:31;;;;;;;20.90;12.90;;;;;;;14.60;100.00;101776.38;10430990;28;20052;-83
2024/02/19 16:09:54;;;;;;;15.90;11.43;;;;;;;14.50;100.00;101774.47;10448223;28;20045;-81
2024/02/19 16:15:17;;;;;;;19.83;12.45;;;;;;;14.42;100.00;101782.31;10433210;28;20433;-80
2024/02/19 16:20:40;;;;;;;17.30;10.95;;;;;;;14.36;100.00;101775.09;10456663;28;20052;-80
2024/02/19 16:26:05;;;;;;;20.15;10.77;;;;;;;14.27;100.00;101782.91;10458286;28;20501;-78
2024/02/19 16:31:31;;;;;;;15.43;10.00;;;;;;;14.38;100.00;101779.53;10462236;28;20052;-82
2024/02/19 16:36:54;;;;;;;19.02;12.63;;;;;;;14.39;100.00;101784.00;10489421;28;20584;-81
2024/02/19 16:42:17;;;;;;;19.70;12.40;;;;;;;14.29;100.00;101786.50;10467044;28;20094;-83
2024/02/19 16:47:41;;;;;;;20.52;14.23;;;;;;;14.29;100.00;101782.94;10457277;28;20049;-84
2024/02/19 16:53:03;;;;;;;23.83;13.13;;;;;;;14.24;100.00;101787.28;10461006;28;20048;-89
2024/02/19 16:58:27;;;;;;;23.98;14.43;;;;;;;14.20;100.00;101799.59;10447492;28;20051;-87
2024/02/19 17:03:52;;;;;;;25.67;16.55;;;;;;;14.24;100.00;101803.22;10448314;28;20061;-83
2024/02/19 17:09:15;;;;;;;19.63;15.10;;;;;;;14.27;100.00;101797.94;10474929;28;20079;-79
2024/02/19 17:14:39;;;;;;;24.85;17.95;;;;;;;14.28;100.00;101797.97;10446581;28;20053;-82
2024/02/19 17:20:03;;;;;;;30.77;20.25;;;;;;;14.39;100.00;101806.16;10445815;28;20140;-83
2024/02/19 17:25:27;;;;;;;26.77;18.20;;;;;;;14.58;100.00;101813.53;10446926;28;20079;-81
2024/02/19 17:30:50;;;;;;;21.55;14.48;;;;;;;14.70;100.00;101810.22;10438763;28;20057;-87
2024/02/19 17:36:14;;;;;;;23.48;14.30;;;;;;;14.81;100.00;101813.91;10438972;28;20053;-79
2024/02/19 17:41:36;;;;;;;19.52;14.27;;;;;;;14.71;100.00;101806.66;10469104;28;20517;-82
2024/02/19 17:46:59;;;;;;;14.38;11.70;;;;;;;14.72;100.00;101817.31;10452564;28;20045;-80
2024/02/19 17:52:23;;;;;;;19.95;12.80;;;;;;;14.78;100.00;101832.47;10445022;28;20041;-79
2024/02/19 17:57:47;;;;;;;268.42;110.15;;;;;;;14.92;100.00;101830.03;10452654;28;20049;-81
2024/02/19 18:03:10;;;;;;;23.77;14.70;;;;;;;15.00;100.00;101823.97;10445901;28;20045;-78
2024/02/19 18:08:35;;;;;;;20.30;13.18;;;;;;;15.13;100.00;101827.69;10430997;28;20144;-85
2024/02/19 18:13:58;;;;;;;22.02;15.70;;;;;;;15.27;100.00;101826.13;10439253;28;20136;-84
2024/02/19 18:19:21;;;;;;;17.48;13.93;;;;;;;15.27;100.00;101820.78;10472783;28;20049;-83
2024/02/19 18:24:47;;;;;;;23.52;14.77;;;;;;;15.05;100.00;101819.59;10438035;28;20098;-88
2024/02/19 18:30:12;;;;;;;22.98;13.07;;;;;;;15.01;100.00;101814.22;10441560;28;20049;-86
2024/02/19 18:35:38;;;;;;;28.08;18.58;;;;;;;15.04;100.00;101828.44;10424966;28;20090;-81
2024/02/19 18:41:03;;;;;;;52.42;28.65;;;;;;;15.14;100.00;101822.38;10479240;28;20048;-83
2024/02/19 18:46:25;;;;;;;35.47;18.98;;;;;;;15.02;100.00;101816.00;10439989;28;20059;-81
2024/02/19 18:51:48;;;;;;;27.88;18.38;;;;;;;14.95;100.00;101817.69;10439269;28;20045;-82
2024/02/19 18:57:12;;;;;;;31.38;23.42;;;;;;;15.03;100.00;101831.97;10438942;28;20082;-80
2024/02/19 19:02:35;;;;;;;19.88;10.95;;;;;;;14.82;100.00;101830.78;10481420;28;20526;-86
2024/02/19 19:07:57;;;;;;;15.70;11.10;;;;;;;14.58;100.00;101823.28;10481188;28;20497;-80
2024/02/19 19:13:23;;;;;;;21.58;16.10;;;;;;;14.26;100.00;101838.66;10478020;28;20056;-83
2024/02/19 19:18:48;;;;;;;20.23;14.25;;;;;;;14.14;100.00;101835.78;10439487;28;20139;-88
2024/02/19 19:24:11;;;;;;;16.90;12.90;;;;;;;14.27;100.00;101841.34;10439998;28;20037;-86
2024/02/19 19:29:35;;;;;;;20.50;12.30;;;;;;;14.38;100.00;101838.00;10448702;28;20041;-84
2024/02/19 19:34:57;;;;;;;25.25;15.48;;;;;;;14.29;100.00;101833.41;10436676;28;20049;-86
2024/02/19 19:40:20;;;;;;;30.63;19.90;;;;;;;14.15;100.00;101830.50;10464364;28;20430;-86
2024/02/19 19:45:45;;;;;;;34.88;23.90;;;;;;;14.00;100.00;101830.22;10484193;28;20068;-86
2024/02/19 19:51:08;;;;;;;24.35;17.70;;;;;;;13.86;100.00;101837.00;10440392;28;20052;-82
2024/02/19 19:56:30;;;;;;;26.83;16.80;;;;;;;13.56;100.00;101840.84;10441133;28;20060;-81
2024/02/19 20:01:55;;;;;;;32.55;19.05;;;;;;;13.49;100.00;101841.59;10431926;28;20044;-83
2024/02/19 20:07:18;;;;;;;25.60;16.70;;;;;;;13.59;100.00;101852.41;10466851;28;20049;-81
2024/02/19 20:12:40;;;;;;;22.67;16.95;;;;;;;13.98;100.00;101847.00;10435516;28;20056;-85
2024/02/19 20:18:05;;;;;;;32.55;24.50;;;;;;;14.29;100.00;101844.91;10435580;28;20075;-83
2024/02/19 20:23:34;;;;;;;39.40;28.77;;;;;;;14.42;100.00;101850.47;10443333;28;20060;-83
2024/02/19 20:28:56;;;;;;;25.25;14.05;;;;;;;14.56;100.00;101849.84;10456512;28;20103;-83
2024/02/19 20:34:20;;;;;;;31.40;20.80;;;;;;;14.68;100.00;101842.09;10443144;28;20049;-82
2024/02/19 20:39:44;;;;;;;22.23;14.27;;;;;;;14.70;100.00;101847.44;10447176;28;20136;-84
2024/02/19 20:45:07;;;;;;;26.85;15.15;;;;;;;14.64;100.00;101849.94;10459126;28;20041;-83
2024/02/19 20:50:31;;;;;;;23.42;14.45;;;;;;;14.54;100.00;101846.28;10434711;28;20069;-83
2024/02/19 20:55:54;;;;;;;20.50;13.13;;;;;;;14.34;100.00;101843.22;10460102;28;20049;-83
2024/02/19 21:01:16;;;;;;;23.00;15.05;;;;;;;14.12;100.00;101835.72;10477149;28;20418;-84
2024/02/19 21:06:40;;;;;;;24.05;14.75;;;;;;;13.79;100.00;101838.66;10484971;28;20052;-83
2024/02/19 21:12:03;;;;;;;26.52;13.82;;;;;;;13.49;100.00;101835.38;10461054;28;20045;-82
2024/02/19 21:17:28;;;;;;;25.60;15.30;;;;;;;13.56;100.00;101829.34;10457210;28;20045;-82
2024/02/19 21:22:52;;;;;;;25.63;15.85;;;;;;;13.40;100.00;101825.47;10442785;28;20044;-82
2024/02/19 21:28:14;;;;;;;25.25;14.20;;;;;;;13.21;100.00;101827.69;10460774;28;20064;-83
2024/02/19 21:33:36;;;;;;;32.28;25.98;;;;;;;13.04;100.00;101829.94;10483599;28;20051;-83
2024/02/19 21:39:00;;;;;;;29.65;19.05;;;;;;;13.01;100.00;101820.16;10471580;28;20056;-83
2024/02/19 21:44:23;;;;;;;21.48;13.32;;;;;;;13.05;100.00;101819.38;10482788;28;20079;-84
2024/02/19 21:49:47;;;;;;;22.80;14.93;;;;;;;13.07;100.00;101820.28;10455139;28;20045;-84
2024/02/19 21:55:11;;;;;;;24.77;14.15;;;;;;;12.92;100.00;101813.75;10469673;28;20087;-84
2024/02/19 22:00:34;;;;;;;21.23;13.43;;;;;;;12.81;100.00;101809.94;10469894;28;20136;-84
2024/02/19 22:05:58;;;;;;;19.83;13.45;;;;;;;12.68;100.00;101799.06;10482568;28;20052;-83
2024/02/19 22:11:24;;;;;;;21.35;14.27;;;;;;;12.74;100.00;101804.50;10468400;28;20505;-84
2024/02/19 22:16:46;;;;;;;19.38;12.00;;;;;;;12.75;100.00;101800.09;10403879;28;20053;-84
2024/02/19 22:22:09;;;;;;;19.02;11.35;;;;;;;12.84;100.00;101795.03;10459982;28;20049;-84
2024/02/19 22:27:33;;;;;;;18.02;12.70;;;;;;;12.83;100.00;101787.03;10468261;28;20049;-84
2024/02/19 22:32:55;;;;;;;21.80;12.02;;;;;;;12.93;100.00;101783.75;10440083;28;20383;-85
2024/02/19 22:38:18;;;;;;;16.60;12.05;;;;;;;12.99;100.00;101779.50;10438632;28;20053;-85
2024/02/19 22:43:42;;;;;;;25.17;12.88;;;;;;;13.03;100.00;101780.44;10481448;28;20098;-85
2024/02/19 22:49:04;;;;;;;18.38;12.15;;;;;;;13.11;100.00;101782.41;10465850;28;20048;-84
2024/02/19 22:54:28;;;;;;;17.48;12.27;;;;;;;13.04;100.00;101777.81;10452371;28;20060;-84
2024/02/19 22:59:52;;;;;;;16.70;11.38;;;;;;;13.02;100.00;101768.03;10448598;28;20045;-85
2024/02/19 23:05:15;;;;;;;16.60;10.90;;;;;;;13.02;100.00;101774.22;10470592;28;20056;-84
2024/02/19 23:10:37;;;;;;;19.30;10.88;;;;;;;13.15;100.00;101784.28;10478172;28;20049;-85
2024/02/19 23:16:03;;;;;;;15.52;10.27;;;;;;;13.13;100.00;101769.19;10476960;28;20110;-84
2024/02/19 23:21:28;;;;;;;15.57;9.95;;;;;;;13.28;100.00;101766.88;10451129;28;20052;-85
2024/02/19 23:26:51;;;;;;;17.45;10.15;;;;;;;13.53;100.00;101760.28;10450107;28;20041;-84
2024/02/19 23:32:15;;;;;;;19.42;11.38;;;;;;;13.45;100.00;101770.78;10437438;28;20052;-84
2024/02/19 23:37:38;;;;;;;19.98;12.82;;;;;;;13.40;100.00;101767.09;10476471;28;20056;-84
2024/02/19 23:43:00;;;;;;;20.13;12.65;;;;;;;13.32;100.00;101751.94;10436540;28;20481;-84
2024/02/19 23:48:25;;;;;;;19.35;13.07;;;;;;;13.23;100.00;101760.56;10428034;28;20445;-84
2024/02/19 23:53:48;;;;;;;20.42;13.05;;;;;;;13.32;100.00;101758.13;10478247;28;20084;-84
2024/02/19 23:59:10;;;;;;;16.42;11.52;;;;;;;13.34;100.00;101756.38;10433839;28;20061;-84
